Time;durP1;ratioP1;P1;durP2;ratioP2;P2;SDS_P1;SDS_P2;PMS_P1;PMS_P2;Temp;Humidity;BMP_temperature;BMP_pressure;BME280_temperature;BME280_humidity;BME280_pressure;Samples;Min_cycle;Max_cycle;Signal;HPM_P1;HPM_P2
2022/12/16 00:00:09;;;;;;;205.50;92.88;;;;;;;;;;4987652;28;20165;-80
2022/12/16 00:02:35;;;;;;;212.77;95.20;;;;;;;;;;4986808;28;20039;-80
2022/12/16 00:05:01;;;;;;;220.57;91.53;;;;;;;;;;4989303;28;20050;-81
2022/12/16 00:07:28;;;;;;;194.73;82.75;;;;;;;;;;4985001;28;20089;-80
2022/12/16 00:09:54;;;;;;;183.98;76.50;;;;;;;;;;4989044;28;20459;-80
2022/12/16 00:12:20;;;;;;;180.27;73.07;;;;;;;;;;4987607;28;20450;-80
2022/12/16 00:14:46;;;;;;;158.30;67.07;;;;;;;;;;4988227;28;20022;-79
2022/12/16 00:17:12;;;;;;;150.30;62.75;;;;;;;;;;5002055;28;20031;-80
2022/12/16 00:19:38;;;;;;;139.95;58.63;;;;;;;;;;4988625;28;20030;-79
2022/12/16 00:22:04;;;;;;;133.63;58.13;;;;;;;;;;4995157;28;20081;-80
2022/12/16 00:24:30;;;;;;;131.02;56.80;;;;;;;;;;4984006;28;20042;-78
2022/12/16 00:26:59;;;;;;;135.35;55.75;;;;;;;;;;4987697;28;20044;-79
2022/12/16 00:29:25;;;;;;;129.50;54.50;;;;;;;;;;5005773;28;20436;-79
2022/12/16 00:31:51;;;;;;;131.52;54.00;;;;;;;;;;4990360;28;20038;-81
2022/12/16 00:34:18;;;;;;;113.00;51.50;;;;;;;;;;4991044;28;20421;-81
2022/12/16 00:36:44;;;;;;;139.13;58.72;;;;;;;;;;4991154;28;20532;-79
2022/12/16 00:39:10;;;;;;;156.98;63.10;;;;;;;;;;4991552;28;20037;-78
2022/12/16 00:41:36;;;;;;;135.27;59.33;;;;;;;;;;4983586;28;20110;-80
2022/12/16 00:44:02;;;;;;;146.30;58.83;;;;;;;;;;4990376;28;20387;-79
2022/12/16 00:46:29;;;;;;;133.73;57.83;;;;;;;;;;4990850;28;20046;-79
2022/12/16 00:48:55;;;;;;;133.98;57.60;;;;;;;;;;5005777;28;20081;-81
2022/12/16 00:51:21;;;;;;;137.15;53.97;;;;;;;;;;4967677;28;20091;-80
2022/12/16 00:53:47;;;;;;;124.55;53.45;;;;;;;;;;4972265;28;20116;-81
2022/12/16 00:56:14;;;;;;;113.93;49.85;;;;;;;;;;4987927;28;20566;-80
2022/12/16 00:58:40;;;;;;;107.43;49.35;;;;;;;;;;4990378;28;20093;-82
2022/12/16 01:01:07;;;;;;;98.40;42.60;;;;;;;;;;5006417;28;20038;-81
2022/12/16 01:03:33;;;;;;;97.95;42.22;;;;;;;;;;4983231;28;20049;-81
2022/12/16 01:05:59;;;;;;;90.88;40.22;;;;;;;;;;4974571;28;20064;-81
2022/12/16 01:08:26;;;;;;;90.25;39.30;;;;;;;;;;4979958;28;20045;-81
2022/12/16 01:10:53;;;;;;;85.90;38.60;;;;;;;;;;4981720;28;20090;-80
2022/12/16 01:13:19;;;;;;;89.07;34.88;;;;;;;;;;4978845;28;20022;-80
2022/12/16 01:15:46;;;;;;;79.32;33.63;;;;;;;;;;4986290;28;20034;-81
2022/12/16 01:18:12;;;;;;;80.22;33.88;;;;;;;;;;4990723;28;20034;-81
2022/12/16 01:20:38;;;;;;;76.88;33.80;;;;;;;;;;4989574;28;20035;-81
2022/12/16 01:23:04;;;;;;;79.07;32.72;;;;;;;;;;4990014;28;20117;-80
2022/12/16 01:25:30;;;;;;;83.30;31.67;;;;;;;;;;4989950;28;20873;-80
2022/12/16 01:27:56;;;;;;;68.88;30.75;;;;;;;;;;4991908;28;20387;-80
2022/12/16 01:30:23;;;;;;;62.78;28.23;;;;;;;;;;4975958;28;20039;-81
2022/12/16 01:32:49;;;;;;;65.85;27.30;;;;;;;;;;4990850;28;20029;-81
2022/12/16 01:35:16;;;;;;;51.80;25.27;;;;;;;;;;4989569;28;20031;-81
2022/12/16 01:37:42;;;;;;;63.78;24.70;;;;;;;;;;4991014;28;20117;-82
2022/12/16 01:40:15;;;;;;;56.88;22.58;;;;;;;;;;4991495;28;20475;-81
2022/12/16 01:42:43;;;;;;;53.30;21.80;;;;;;;;;;4987930;28;20129;-81
2022/12/16 01:45:41;;;;;;;54.60;21.17;;;;;;;;;;4987018;28;20066;-80
2022/12/16 01:48:41;;;;;;;49.83;18.55;;;;;;;;;;4958538;28;20438;-80
2022/12/16 01:51:13;;;;;;;49.75;17.95;;;;;;;;;;4941303;28;20617;-81
2022/12/16 01:53:42;;;;;;;48.40;17.88;;;;;;;;;;4988921;28;20117;-81
2022/12/16 01:56:09;;;;;;;46.42;16.45;;;;;;;;;;4987126;28;20121;-80
2022/12/16 01:58:38;;;;;;;45.75;15.60;;;;;;;;;;4967017;28;20438;-80
2022/12/16 02:01:06;;;;;;;41.67;15.43;;;;;;;;;;4998589;28;20034;-80
2022/12/16 02:03:34;;;;;;;46.50;15.40;;;;;;;;;;4973569;28;20527;-81
2022/12/16 02:06:01;;;;;;;44.63;14.45;;;;;;;;;;4988399;28;20483;-80
2022/12/16 02:08:27;;;;;;;45.78;15.73;;;;;;;;;;4991802;28;20069;-81
2022/12/16 02:11:07;;;;;;;44.03;16.83;;;;;;;;;;4987255;28;20026;-81
2022/12/16 02:13:46;;;;;;;55.55;15.68;;;;;;;;;;4989277;28;20491;-80
2022/12/16 02:16:35;;;;;;;49.85;16.95;;;;;;;;;;4965867;28;20031;-80
2022/12/16 02:19:20;;;;;;;54.78;16.23;;;;;;;;;;4988852;28;20046;-80
2022/12/16 02:21:56;;;;;;;42.20;16.23;;;;;;;;;;4986184;28;20104;-80
2022/12/16 02:24:41;;;;;;;45.60;16.95;;;;;;;;;;4988795;28;20244;-80
2022/12/16 02:27:19;;;;;;;50.60;17.83;;;;;;;;;;4984758;28;20037;-80
2022/12/16 02:30:05;;;;;;;42.65;16.80;;;;;;;;;;4988952;28;20503;-80
2022/12/16 02:32:37;;;;;;;47.55;16.80;;;;;;;;;;4985839;28;20069;-80
2022/12/16 02:35:09;;;;;;;46.85;17.77;;;;;;;;;;4988829;28;20184;-80
2022/12/16 02:37:42;;;;;;;38.65;17.48;;;;;;;;;;4986031;28;20030;-80
2022/12/16 02:40:23;;;;;;;41.25;16.45;;;;;;;;;;4989397;28;20145;-80
2022/12/16 02:42:57;;;;;;;41.05;16.48;;;;;;;;;;4988507;28;20084;-80
2022/12/16 02:45:27;;;;;;;42.70;17.02;;;;;;;;;;4987718;28;20046;-82
2022/12/16 02:47:53;;;;;;;41.88;16.35;;;;;;;;;;4987371;28;20038;-80
2022/12/16 02:50:19;;;;;;;45.80;18.95;;;;;;;;;;4986606;28;20500;-80
2022/12/16 02:52:45;;;;;;;40.20;18.13;;;;;;;;;;4987307;28;20471;-82
2022/12/16 02:55:12;;;;;;;41.55;17.55;;;;;;;;;;4980687;28;20038;-82
2022/12/16 02:57:38;;;;;;;41.00;17.90;;;;;;;;;;4998389;28;20045;-81
2022/12/16 03:00:13;;;;;;;36.65;16.85;;;;;;;;;;4985529;28;20550;-81
2022/12/16 03:02:57;;;;;;;51.97;18.88;;;;;;;;;;4965317;28;20157;-85
2022/12/16 03:05:32;;;;;;;37.15;15.93;;;;;;;;;;4989530;28;20121;-81
2022/12/16 03:08:01;;;;;;;41.50;17.70;;;;;;;;;;4983459;28;20022;-81
2022/12/16 03:10:30;;;;;;;36.97;16.45;;;;;;;;;;4986634;28;20049;-82
2022/12/16 03:12:57;;;;;;;37.78;16.35;;;;;;;;;;4987048;28;20403;-82
2022/12/16 03:15:25;;;;;;;38.67;16.42;;;;;;;;;;4986591;28;20475;-81
2022/12/16 03:17:53;;;;;;;44.85;17.88;;;;;;;;;;4982371;28;20140;-82
2022/12/16 03:20:32;;;;;;;43.33;17.13;;;;;;;;;;4985862;28;20033;-81
2022/12/16 03:23:00;;;;;;;40.80;16.02;;;;;;;;;;4993011;28;20122;-81
2022/12/16 03:25:27;;;;;;;37.58;15.25;;;;;;;;;;4996972;28;20023;-81
2022/12/16 03:28:23;;;;;;;43.17;16.20;;;;;;;;;;4985576;28;20057;-81
2022/12/16 03:30:53;;;;;;;37.53;15.25;;;;;;;;;;4974773;28;20073;-80
2022/12/16 03:33:25;;;;;;;40.13;17.05;;;;;;;;;;4973812;28;20026;-81
2022/12/16 03:35:57;;;;;;;54.05;17.23;;;;;;;;;;4974412;28;20042;-81
2022/12/16 03:38:23;;;;;;;45.25;17.88;;;;;;;;;;4981648;28;20069;-80
2022/12/16 03:40:50;;;;;;;50.88;18.20;;;;;;;;;;4982282;28;20106;-81
2022/12/16 03:43:17;;;;;;;45.63;19.10;;;;;;;;;;4987506;28;20066;-81
2022/12/16 03:45:47;;;;;;;46.22;17.75;;;;;;;;;;4984298;28;20435;-80
2022/12/16 03:48:15;;;;;;;45.83;18.90;;;;;;;;;;4980944;28;20026;-80
2022/12/16 03:50:41;;;;;;;45.92;17.27;;;;;;;;;;4981776;28;20022;-80
2022/12/16 03:53:08;;;;;;;41.78;17.42;;;;;;;;;;4987136;28;20035;-79
2022/12/16 03:55:34;;;;;;;42.85;17.85;;;;;;;;;;4985747;28;20459;-79
2022/12/16 03:58:00;;;;;;;45.70;15.98;;;;;;;;;;4987116;28;20104;-79
2022/12/16 04:00:26;;;;;;;58.38;17.42;;;;;;;;;;4983909;28;20031;-80
2022/12/16 04:02:52;;;;;;;46.58;16.35;;;;;;;;;;4984276;28;20042;-81
2022/12/16 04:05:18;;;;;;;46.00;17.05;;;;;;;;;;4989383;28;20039;-80
2022/12/16 04:07:44;;;;;;;46.00;18.23;;;;;;;;;;4987571;28;20097;-81
2022/12/16 04:10:11;;;;;;;39.72;16.58;;;;;;;;;;4989031;28;20031;-81
2022/12/16 04:27:23;;;;;;;45.38;16.73;;;;;;;;;;4994892;28;20133;-80
2022/12/16 04:29:21;;;;;;;44.20;14.73;;;;;;;;;;4987394;28;20440;-80
2022/12/16 04:31:47;;;;;;;52.65;14.10;;;;;;;;;;4988572;28;20420;-80
2022/12/16 04:34:26;;;;;;;46.80;13.88;;;;;;;;;;5003874;28;20034;-80
